Meteo Giornale » Osservazioni meteo Italia » Resia Pass

ore: 02:55 - Osservazioni Meteo Resia Pass
Lat. 46° 50' N Lon. 10° 30' E Alt. 1800 metri s.l.m.

sereno Europe/Rome

-1 °C

Sereno

Temp. 24 Ore

-1 °C

6 °C

Nord/Nord-Est

9.3 Km/h

Dew point -10 °C

Umidità 50 %

Visibilità  10 Km

Il sole sorge alle ore 07:25

Il sole tramonta alle ore 16:41

Data e Ora Cielo e Fenomeni T °C DP °C Um. % Pres. hPa Vis. km Vento km/h
Oggi h: 02:55 sereno Sereno -1 -10 50 1015 10 N/NE 9.3
Oggi h: 01:55 sereno Sereno -1 -10 50 1015 10 N/NE 13
Oggi h: 00:55 sereno Sereno -1 -10 50 1017 10 N 11.1
Ieri h: 23:55 sereno Sereno -1 -10 50 1016 10 N/NE 9.3
Ieri h: 22:55 sereno Sereno -1 -9 54 1017 10 N/NE 9.3
Ieri h: 21:55 sereno Sereno -1 -10 50 1017 10 N/NE 11.1
Ieri h: 20:55 sereno Sereno -1 -10 50 1017 10 N 9.3
Ieri h: 19:55 sereno Sereno -1 -9 54 1017 10 N/NE 7.4
Ieri h: 18:55 sereno Sereno 0 -11 43 1017 10 N/NE 9.3
Ieri h: 17:55 sereno Sereno -1 -12 42 1017 10 N/NE 9.3
Ieri h: 16:55 sereno Sereno 2 -10 40 1017 10 N/NE 9.3
Ieri h: 15:55 sereno Sereno 4 -11 32 1017 10 N 5.5
Ieri h: 14:55 sereno Sereno 6 -14 22 1017 10 N/NE 9.3
Ieri h: 13:55 sereno Sereno 6 -9 33 1017 10 NE 14.8
Ieri h: 12:55 sereno Sereno 5 -6 44 1018 10 N/NE 16.7
Ieri h: 11:55 sereno Sereno 4 -6 47 1018 10 N/NE 18.5
Ieri h: 10:55 sereno Sereno 3 -2 69 1018 10 N/NE 13
Ieri h: 09:55 sereno Sereno 1 -3 74 1019 10 N/NE 14.8
Ieri h: 06:55 sereno Sereno -1 -4 80 1018 10 N 13
Ieri h: 05:55 sereno Sereno -0 -3 80 1018 10 N/NE 11.1